LFSA weather

Public forecast

Using degrees Celsius for public forecast. Weather courtesy of forecast.io.

Closest aviation weather report (METAR) to Besançon–Thise Airfield

Closest report is Dole-Tavaux Airport, 29.9 nm (55.4 km) WSW. Retrieved 2020/08/15 10:30 UTC (29 minutes ago):

LFGJ 151030Z AUTO 28004KT 240V350 9999 SCT048 SCT058 26/15 Q1015 NOSIG

Closest aviation forecast (TAF) to Besançon–Thise Airfield

Forecast is more than 12 hours old.

Closest forecast is Dole-Tavaux Airport, 29.9 nm (55.4 km) WSW. Retrieved 2020/06/22 09:21 UTC (2 months ago):

TAF LFGJ 220800Z 2209/2221 01008KT 9999 FEW035 BKN053 BECMG 2212/2215 CAVOK